createdAt,value
2022-09-21T00:01:21.447Z,2.67
2022-09-21T00:03:54.032Z,2.38
2022-09-21T00:06:23.331Z,1.87
2022-09-21T00:08:51.745Z,2.30
2022-09-21T00:11:21.363Z,2.25
2022-09-21T00:13:48.910Z,2.25
2022-09-21T00:16:17.482Z,2.50
2022-09-21T00:18:45.586Z,2.13
2022-09-21T00:21:16.072Z,2.25
2022-09-21T00:23:44.243Z,2.63
2022-09-21T00:26:13.993Z,2.35
2022-09-21T00:28:42.288Z,2.10
2022-09-21T00:31:12.198Z,2.33
2022-09-21T00:33:40.820Z,2.22
2022-09-21T00:36:10.631Z,2.10
2022-09-21T00:38:39.895Z,2.45
2022-09-21T00:41:09.332Z,2.25
2022-09-21T00:43:38.608Z,2.50
2022-09-21T00:46:13.550Z,2.30
2022-09-21T00:48:42.092Z,2.00
2022-09-21T00:51:10.012Z,2.38
2022-09-21T00:53:39.844Z,2.40
2022-09-21T00:56:10.393Z,2.30
2022-09-21T00:58:45.052Z,2.00
2022-09-21T01:01:15.183Z,1.98
2022-09-21T01:03:44.560Z,1.90
2022-09-21T01:06:13.196Z,2.40
2022-09-21T01:08:43.228Z,1.85
2022-09-21T01:11:30.226Z,1.80
2022-09-21T01:14:25.621Z,2.85
2022-09-21T01:17:02.506Z,2.30
2022-09-21T01:20:05.731Z,2.22
2022-09-21T01:22:46.206Z,2.30
2022-09-21T01:25:32.094Z,2.72
2022-09-21T01:28:16.077Z,2.08
2022-09-21T01:30:49.076Z,2.15
2022-09-21T01:33:23.805Z,2.00
2022-09-21T01:35:56.134Z,1.90
2022-09-21T01:38:27.318Z,2.20
2022-09-21T01:41:00.156Z,2.08
2022-09-21T01:43:32.379Z,2.00
2022-09-21T01:46:03.908Z,2.10
2022-09-21T01:48:35.104Z,1.80
2022-09-21T01:51:06.342Z,2.38
2022-09-21T01:53:38.639Z,1.92
2022-09-21T01:56:11.768Z,1.90
2022-09-21T01:58:44.533Z,2.22
2022-09-21T02:01:19.096Z,2.33
2022-09-21T02:03:49.988Z,1.77
2022-09-21T02:06:19.137Z,2.13
2022-09-21T02:08:47.460Z,2.03
2022-09-21T02:11:15.022Z,1.85
2022-09-21T02:13:46.251Z,1.90
2022-09-21T02:16:30.272Z,1.77
2022-09-21T02:19:11.224Z,1.95
2022-09-21T02:21:51.273Z,2.20
2022-09-21T02:24:29.611Z,1.95
2022-09-21T02:27:05.011Z,1.92
2022-09-21T02:29:43.298Z,2.13
2022-09-21T02:32:20.460Z,2.20
2022-09-21T02:34:53.646Z,1.73
2022-09-21T02:37:31.066Z,2.08
2022-09-21T02:40:03.754Z,2.28
2022-09-21T02:42:35.886Z,2.40
2022-09-21T02:45:09.075Z,2.20
2022-09-21T02:47:46.795Z,2.50
2022-09-21T02:50:21.181Z,2.35
2022-09-21T02:52:48.904Z,1.90
2022-09-21T02:55:18.980Z,2.00
2022-09-21T02:57:48.831Z,2.00
2022-09-21T03:00:16.980Z,1.95
2022-09-21T03:02:46.620Z,2.00
2022-09-21T03:05:16.087Z,2.10
2022-09-21T03:07:43.635Z,1.75
2022-09-21T03:10:11.243Z,1.92
2022-09-21T03:12:38.794Z,1.90
2022-09-21T03:15:07.320Z,2.40
2022-09-21T03:17:34.864Z,1.73
2022-09-21T03:20:03.945Z,1.77
2022-09-21T03:22:31.445Z,1.70
2022-09-21T03:24:59.637Z,1.75
2022-09-21T03:27:27.514Z,1.83
2022-09-21T03:29:57.706Z,1.85
2022-09-21T03:32:27.627Z,2.20
2022-09-21T03:34:55.140Z,1.70
2022-09-21T03:37:23.983Z,1.80
2022-09-21T03:39:51.879Z,1.67
2022-09-21T03:42:19.486Z,1.65
2022-09-21T03:44:47.046Z,1.83
2022-09-21T03:47:14.530Z,1.83
2022-09-21T03:49:42.022Z,1.80
2022-09-21T03:52:09.522Z,1.90
2022-09-21T03:54:38.360Z,1.63
2022-09-21T03:57:05.962Z,1.90
2022-09-21T03:59:34.745Z,1.75
2022-09-21T04:02:02.363Z,1.30
2022-09-21T04:04:29.867Z,1.77
2022-09-21T04:06:57.388Z,1.85
2022-09-21T04:09:25.024Z,1.90
2022-09-21T04:11:53.998Z,1.73
2022-09-21T04:14:23.123Z,1.80
2022-09-21T04:16:50.803Z,1.75
2022-09-21T04:19:18.374Z,1.75
2022-09-21T04:21:46.068Z,1.60
2022-09-21T04:24:13.588Z,1.60
2022-09-21T04:26:41.655Z,2.10
2022-09-21T04:29:10.955Z,3.20
2022-09-21T04:31:38.489Z,1.85
2022-09-21T04:34:06.011Z,1.98
2022-09-21T04:36:36.646Z,1.90
2022-09-21T04:39:05.168Z,1.98
2022-09-21T04:41:32.755Z,2.35
2022-09-21T04:44:01.152Z,1.92
2022-09-21T04:46:30.128Z,2.10
2022-09-21T04:48:58.698Z,2.67
2022-09-21T04:51:26.292Z,2.63
2022-09-21T04:53:53.774Z,2.28
2022-09-21T04:56:21.404Z,2.47
2022-09-21T04:58:48.932Z,2.10
2022-09-21T05:01:16.516Z,2.60
2022-09-21T05:03:45.485Z,2.20
2022-09-21T05:06:13.386Z,3.25
2022-09-21T05:08:58.825Z,2.70
2022-09-21T05:11:27.197Z,2.10
2022-09-21T05:13:54.838Z,1.88
2022-09-21T05:16:22.364Z,2.13
2022-09-21T05:18:54.825Z,2.78
2022-09-21T05:21:22.739Z,2.92
2022-09-21T05:23:50.303Z,2.70
2022-09-21T05:26:17.880Z,2.47
2022-09-21T05:28:45.876Z,2.50
2022-09-21T05:31:28.335Z,2.60
2022-09-21T05:34:04.664Z,3.38
2022-09-21T05:36:43.037Z,4.80
2022-09-21T05:39:11.380Z,2.38
2022-09-21T05:41:39.512Z,2.92
2022-09-21T05:44:08.320Z,3.33
2022-09-21T05:46:40.452Z,2.65
2022-09-21T05:49:18.106Z,2.85
2022-09-21T05:51:57.478Z,3.20
2022-09-21T05:54:33.590Z,3.08
2022-09-21T05:57:09.799Z,2.85
2022-09-21T05:59:49.555Z,2.58
2022-09-21T06:02:29.826Z,3.13
2022-09-21T06:05:01.416Z,3.42
2022-09-21T06:07:28.980Z,2.55
2022-09-21T06:09:56.479Z,2.58
2022-09-21T06:12:24.045Z,2.63
2022-09-21T06:14:51.536Z,2.15
2022-09-21T06:17:19.098Z,2.50
2022-09-21T06:19:46.624Z,2.40
2022-09-21T06:22:15.471Z,2.75
2022-09-21T06:24:42.973Z,2.78
2022-09-21T06:27:10.517Z,3.13
2022-09-21T06:29:38.033Z,3.33
2022-09-21T06:32:06.055Z,6.90
2022-09-21T06:34:33.622Z,3.90
2022-09-21T06:37:01.135Z,3.53
2022-09-21T06:39:29.981Z,3.35
2022-09-21T06:41:57.479Z,3.05
2022-09-21T06:44:24.990Z,2.92
2022-09-21T06:46:52.517Z,2.90
2022-09-21T06:49:20.038Z,3.67
2022-09-21T06:51:48.393Z,2.78
2022-09-21T06:54:17.447Z,3.20
2022-09-21T06:56:46.468Z,3.42
2022-09-21T06:59:14.027Z,2.83
2022-09-21T07:01:41.609Z,3.03
2022-09-21T07:04:09.538Z,2.95
2022-09-21T07:06:37.222Z,2.83
2022-09-21T07:11:54.432Z,2.70
2022-09-21T07:14:23.282Z,3.03
2022-09-21T07:16:50.803Z,2.88
2022-09-21T07:19:19.068Z,3.33
2022-09-21T07:21:47.429Z,2.80
2022-09-21T07:24:15.941Z,2.95
2022-09-21T07:26:43.460Z,3.20
2022-09-21T07:29:12.436Z,3.08
2022-09-21T07:31:39.994Z,3.22
2022-09-21T07:34:07.619Z,3.50
2022-09-21T07:36:35.169Z,3.13
2022-09-21T07:39:02.993Z,3.10
2022-09-21T07:41:30.576Z,3.10
2022-09-21T07:43:58.210Z,3.20
2022-09-21T07:46:27.128Z,3.30
2022-09-21T07:48:54.928Z,4.78
2022-09-21T07:51:23.536Z,3.53
2022-09-21T07:53:57.189Z,3.92
2022-09-21T07:56:24.835Z,3.58
2022-09-21T07:59:06.456Z,4.28
2022-09-21T08:01:36.971Z,4.65
2022-09-21T08:04:06.173Z,3.85
2022-09-21T08:06:35.703Z,4.28
2022-09-21T08:09:04.665Z,4.65
2022-09-21T08:11:33.528Z,4.65
2022-09-21T08:14:02.903Z,4.53
2022-09-21T08:16:31.995Z,4.32
2022-09-21T08:19:02.078Z,3.75
2022-09-21T08:21:29.796Z,4.28
2022-09-21T08:23:57.935Z,4.03
2022-09-21T08:26:26.312Z,3.78
2022-09-21T08:28:58.593Z,4.25
2022-09-21T08:31:27.034Z,3.75
2022-09-21T08:33:56.919Z,3.60
2022-09-21T08:36:26.248Z,3.90
2022-09-21T08:38:54.991Z,3.95
2022-09-21T08:41:25.395Z,3.47
2022-09-21T08:43:56.455Z,3.50
2022-09-21T08:46:28.179Z,3.80
2022-09-21T08:48:59.601Z,2.40
2022-09-21T08:51:32.999Z,1.90
2022-09-21T08:56:53.408Z,1.48
2022-09-21T08:59:20.312Z,1.60
2022-09-21T09:01:59.525Z,1.80
2022-09-21T09:04:46.833Z,1.60
2022-09-21T09:07:31.616Z,1.55
2022-09-21T09:10:08.182Z,1.20
2022-09-21T09:12:50.488Z,1.08
2022-09-21T09:15:34.120Z,1.15
2022-09-21T09:18:10.259Z,1.08
2022-09-21T09:20:41.076Z,1.35
2022-09-21T09:23:16.012Z,0.98
2022-09-21T09:25:47.495Z,1.08
2022-09-21T09:28:25.443Z,1.00
2022-09-21T09:31:00.852Z,1.05
2022-09-21T09:33:36.412Z,1.10
2022-09-21T09:36:06.800Z,0.75
2022-09-21T09:38:40.626Z,0.80
2022-09-21T09:41:26.105Z,0.93
2022-09-21T09:44:03.715Z,0.93
2022-09-21T09:46:37.335Z,1.30
2022-09-21T09:49:24.879Z,0.90
2022-09-21T09:51:52.501Z,1.10
2022-09-21T09:54:25.305Z,1.05
2022-09-21T09:56:55.027Z,1.13
2022-09-21T09:59:30.391Z,1.00
2022-09-21T10:02:02.093Z,1.20
2022-09-21T10:04:29.964Z,1.10
2022-09-21T10:06:57.577Z,0.93
2022-09-21T10:09:29.154Z,0.90
2022-09-21T10:12:00.784Z,0.50
2022-09-21T10:14:33.162Z,1.08
2022-09-21T10:17:06.420Z,0.70
2022-09-21T10:19:34.293Z,0.80
2022-09-21T10:22:03.504Z,0.98
2022-09-21T10:24:35.540Z,0.70
2022-09-21T10:27:07.291Z,0.70
2022-09-21T10:29:43.692Z,0.52
2022-09-21T10:32:23.480Z,0.50
2022-09-21T10:35:04.122Z,0.50
2022-09-21T10:37:34.739Z,0.60
2022-09-21T10:40:04.657Z,0.50
2022-09-21T10:42:37.279Z,0.75
2022-09-21T10:45:15.888Z,1.30
2022-09-21T10:47:46.003Z,1.30
2022-09-21T10:50:25.166Z,0.70
2022-09-21T10:52:58.663Z,0.60
2022-09-21T10:55:30.000Z,0.60
2022-09-21T10:57:58.892Z,0.70
2022-09-21T11:00:41.379Z,0.63
2022-09-21T11:03:34.607Z,0.68
2022-09-21T11:06:06.200Z,0.80
2022-09-21T11:08:38.513Z,0.70
2022-09-21T11:11:21.256Z,0.90
2022-09-21T11:13:54.293Z,0.70
2022-09-21T11:16:27.196Z,0.80
2022-09-21T11:19:04.644Z,0.70
2022-09-21T11:21:37.193Z,0.90
2022-09-21T11:24:23.963Z,0.73
2022-09-21T11:26:57.360Z,0.73
